sensor_id;sensor_type;location;lat;lon;timestamp;pressure;altitude;pressure_sealevel;temperature;humidity
55733;BME280;41637;52.364;9.910;2023-02-22T00:01:33;100913.33;;;8.44;99.75
55733;BME280;41637;52.364;9.910;2023-02-22T00:04:17;100914.20;;;8.42;99.81
55733;BME280;41637;52.364;9.910;2023-02-22T00:06:47;100914.93;;;8.42;99.61
55733;BME280;41637;52.364;9.910;2023-02-22T00:09:14;100912.31;;;8.41;99.81
55733;BME280;41637;52.364;9.910;2023-02-22T00:11:47;100916.55;;;8.41;99.77
55733;BME280;41637;52.364;9.910;2023-02-22T00:14:15;100912.65;;;8.42;99.58
55733;BME280;41637;52.364;9.910;2023-02-22T00:16:45;100911.59;;;8.42;99.63
55733;BME280;41637;52.364;9.910;2023-02-22T00:19:13;100915.33;;;8.41;99.60
55733;BME280;41637;52.364;9.910;2023-02-22T00:21:40;100918.66;;;8.42;99.43
55733;BME280;41637;52.364;9.910;2023-02-22T00:24:07;100919.19;;;8.41;99.66
55733;BME280;41637;52.364;9.910;2023-02-22T00:26:53;100911.70;;;8.43;99.66
55733;BME280;41637;52.364;9.910;2023-02-22T00:29:24;100915.73;;;8.43;99.59
55733;BME280;41637;52.364;9.910;2023-02-22T00:31:50;100915.16;;;8.43;99.77
55733;BME280;41637;52.364;9.910;2023-02-22T00:34:18;100910.31;;;8.44;99.71
55733;BME280;41637;52.364;9.910;2023-02-22T00:36:46;100911.27;;;8.45;99.53
55733;BME280;41637;52.364;9.910;2023-02-22T00:39:14;100906.05;;;8.44;99.45
55733;BME280;41637;52.364;9.910;2023-02-22T00:41:41;100905.14;;;8.44;99.46
55733;BME280;41637;52.364;9.910;2023-02-22T00:44:09;100904.80;;;8.44;99.56
55733;BME280;41637;52.364;9.910;2023-02-22T00:46:36;100903.64;;;8.45;99.28
55733;BME280;41637;52.364;9.910;2023-02-22T00:49:03;100901.19;;;8.47;99.32
55733;BME280;41637;52.364;9.910;2023-02-22T00:51:30;100901.16;;;8.49;99.27
55733;BME280;41637;52.364;9.910;2023-02-22T00:53:59;100897.07;;;8.51;99.26
55733;BME280;41637;52.364;9.910;2023-02-22T00:56:26;100898.54;;;8.54;98.98
55733;BME280;41637;52.364;9.910;2023-02-22T00:58:53;100897.40;;;8.54;98.78
55733;BME280;41637;52.364;9.910;2023-02-22T01:01:20;100892.55;;;8.52;98.29
55733;BME280;41637;52.364;9.910;2023-02-22T01:03:50;100891.86;;;8.47;97.88
55733;BME280;41637;52.364;9.910;2023-02-22T01:06:17;100889.60;;;8.41;97.54
55733;BME280;41637;52.364;9.910;2023-02-22T01:08:45;100888.10;;;8.37;97.75
55733;BME280;41637;52.364;9.910;2023-02-22T01:11:14;100885.90;;;8.34;97.83
55733;BME280;41637;52.364;9.910;2023-02-22T01:13:42;100885.96;;;8.30;97.89
55733;BME280;41637;52.364;9.910;2023-02-22T01:16:10;100882.88;;;8.26;97.60
55733;BME280;41637;52.364;9.910;2023-02-22T01:18:38;100882.16;;;8.19;97.76
55733;BME280;41637;52.364;9.910;2023-02-22T01:21:05;100877.70;;;8.08;97.44
55733;BME280;41637;52.364;9.910;2023-02-22T01:23:32;100876.59;;;8.01;97.59
55733;BME280;41637;52.364;9.910;2023-02-22T01:26:00;100879.08;;;7.93;97.59
55733;BME280;41637;52.364;9.910;2023-02-22T01:28:27;100877.68;;;7.84;97.74
55733;BME280;41637;52.364;9.910;2023-02-22T01:30:54;100870.72;;;7.72;97.57
55733;BME280;41637;52.364;9.910;2023-02-22T01:33:22;100867.89;;;7.64;97.75
55733;BME280;41637;52.364;9.910;2023-02-22T01:35:49;100864.89;;;7.55;97.86
55733;BME280;41637;52.364;9.910;2023-02-22T01:38:17;100863.45;;;7.45;97.90
55733;BME280;41637;52.364;9.910;2023-02-22T01:40:47;100858.16;;;7.35;98.28
55733;BME280;41637;52.364;9.910;2023-02-22T01:43:26;100860.84;;;7.28;98.47
55733;BME280;41637;52.364;9.910;2023-02-22T01:46:05;100861.38;;;7.21;98.80
55733;BME280;41637;52.364;9.910;2023-02-22T01:48:34;100859.12;;;7.13;98.64
55733;BME280;41637;52.364;9.910;2023-02-22T01:51:06;100855.89;;;7.04;98.64
55733;BME280;41637;52.364;9.910;2023-02-22T01:53:47;100859.51;;;6.94;98.38
55733;BME280;41637;52.364;9.910;2023-02-22T01:56:17;100857.06;;;6.83;98.73
55733;BME280;41637;52.364;9.910;2023-02-22T01:58:48;100856.97;;;6.75;98.79
55733;BME280;41637;52.364;9.910;2023-02-22T02:01:17;100857.30;;;6.68;99.08
55733;BME280;41637;52.364;9.910;2023-02-22T02:03:45;100854.21;;;6.59;99.06
55733;BME280;41637;52.364;9.910;2023-02-22T02:06:15;100854.70;;;6.49;98.76
55733;BME280;41637;52.364;9.910;2023-02-22T02:09:12;100851.18;;;6.38;98.76
55733;BME280;41637;52.364;9.910;2023-02-22T02:11:40;100852.73;;;6.26;99.17
55733;BME280;41637;52.364;9.910;2023-02-22T02:14:08;100847.93;;;6.20;99.46
55733;BME280;41637;52.364;9.910;2023-02-22T02:16:41;100844.11;;;6.13;99.78
55733;BME280;41637;52.364;9.910;2023-02-22T02:19:36;100842.19;;;6.07;99.97
55733;BME280;41637;52.364;9.910;2023-02-22T02:27:58;100834.20;;;5.91;100.00
55733;BME280;41637;52.364;9.910;2023-02-22T02:30:49;100833.12;;;5.85;100.00
55733;BME280;41637;52.364;9.910;2023-02-22T02:33:41;100835.46;;;5.81;100.00
55733;BME280;41637;52.364;9.910;2023-02-22T02:38:49;100836.45;;;5.74;100.00
55733;BME280;41637;52.364;9.910;2023-02-22T02:41:29;100833.72;;;5.71;100.00
55733;BME280;41637;52.364;9.910;2023-02-22T02:44:03;100832.29;;;5.67;100.00
55733;BME280;41637;52.364;9.910;2023-02-22T02:46:34;100829.41;;;5.64;100.00
55733;BME280;41637;52.364;9.910;2023-02-22T02:49:12;100827.30;;;5.61;100.00
55733;BME280;41637;52.364;9.910;2023-02-22T02:51:44;100820.83;;;5.55;100.00
55733;BME280;41637;52.364;9.910;2023-02-22T02:54:13;100814.77;;;5.48;100.00
55733;BME280;41637;52.364;9.910;2023-02-22T02:56:41;100815.92;;;5.43;100.00
55733;BME280;41637;52.364;9.910;2023-02-22T02:59:32;100811.02;;;5.37;100.00
55733;BME280;41637;52.364;9.910;2023-02-22T03:02:26;100814.37;;;5.31;100.00
55733;BME280;41637;52.364;9.910;2023-02-22T03:07:46;100815.09;;;5.23;100.00
55733;BME280;41637;52.364;9.910;2023-02-22T03:12:59;100814.46;;;5.16;100.00
55733;BME280;41637;52.364;9.910;2023-02-22T03:15:50;100814.49;;;5.12;100.00
55733;BME280;41637;52.364;9.910;2023-02-22T03:18:35;100811.14;;;5.08;100.00
55733;BME280;41637;52.364;9.910;2023-02-22T03:24:08;100803.17;;;5.03;100.00
55733;BME280;41637;52.364;9.910;2023-02-22T03:29:41;100797.27;;;5.01;100.00
55733;BME280;41637;52.364;9.910;2023-02-22T03:32:13;100800.13;;;4.98;100.00
55733;BME280;41637;52.364;9.910;2023-02-22T03:34:47;100798.02;;;4.94;100.00
55733;BME280;41637;52.364;9.910;2023-02-22T03:37:20;100795.14;;;4.89;100.00
55733;BME280;41637;52.364;9.910;2023-02-22T03:39:52;100794.18;;;4.84;100.00
55733;BME280;41637;52.364;9.910;2023-02-22T03:42:23;100791.80;;;4.79;100.00
55733;BME280;41637;52.364;9.910;2023-02-22T03:44:53;100792.19;;;4.75;100.00
55733;BME280;41637;52.364;9.910;2023-02-22T03:47:34;100787.38;;;4.69;100.00
55733;BME280;41637;52.364;9.910;2023-02-22T03:50:33;100788.27;;;4.63;100.00
55733;BME280;41637;52.364;9.910;2023-02-22T03:53:02;100786.34;;;4.55;100.00
55733;BME280;41637;52.364;9.910;2023-02-22T03:55:29;100784.73;;;4.50;100.00
55733;BME280;41637;52.364;9.910;2023-02-22T03:57:57;100785.70;;;4.44;100.00
55733;BME280;41637;52.364;9.910;2023-02-22T04:00:27;100784.72;;;4.39;100.00
55733;BME280;41637;52.364;9.910;2023-02-22T04:02:56;100788.84;;;4.36;100.00
55733;BME280;41637;52.364;9.910;2023-02-22T04:05:23;100785.92;;;4.34;100.00
55733;BME280;41637;52.364;9.910;2023-02-22T04:07:52;100785.69;;;4.33;100.00
55733;BME280;41637;52.364;9.910;2023-02-22T04:10:19;100787.75;;;4.31;100.00
55733;BME280;41637;52.364;9.910;2023-02-22T04:12:47;100780.96;;;4.28;100.00
55733;BME280;41637;52.364;9.910;2023-02-22T04:15:16;100780.75;;;4.27;100.00
55733;BME280;41637;52.364;9.910;2023-02-22T04:17:44;100779.12;;;4.25;100.00
55733;BME280;41637;52.364;9.910;2023-02-22T04:20:11;100775.44;;;4.23;100.00
55733;BME280;41637;52.364;9.910;2023-02-22T04:22:39;100774.77;;;4.21;100.00
55733;BME280;41637;52.364;9.910;2023-02-22T04:25:07;100771.97;;;4.19;100.00
55733;BME280;41637;52.364;9.910;2023-02-22T04:27:34;100771.92;;;4.18;100.00
55733;BME280;41637;52.364;9.910;2023-02-22T04:30:01;100774.66;;;4.16;100.00
55733;BME280;41637;52.364;9.910;2023-02-22T04:32:28;100771.86;;;4.14;100.00
55733;BME280;41637;52.364;9.910;2023-02-22T04:34:55;100773.40;;;4.14;100.00
55733;BME280;41637;52.364;9.910;2023-02-22T04:37:23;100770.90;;;4.15;100.00
55733;BME280;41637;52.364;9.910;2023-02-22T04:39:50;100767.56;;;4.15;100.00
55733;BME280;41637;52.364;9.910;2023-02-22T04:42:17;100768.57;;;4.14;100.00
55733;BME280;41637;52.364;9.910;2023-02-22T04:44:44;100765.72;;;4.12;100.00
55733;BME280;41637;52.364;9.910;2023-02-22T04:47:11;100765.02;;;4.10;100.00
55733;BME280;41637;52.364;9.910;2023-02-22T04:49:38;100762.98;;;4.07;100.00
55733;BME280;41637;52.364;9.910;2023-02-22T04:52:05;100767.02;;;4.05;100.00
55733;BME280;41637;52.364;9.910;2023-02-22T04:54:32;100764.90;;;4.03;100.00
55733;BME280;41637;52.364;9.910;2023-02-22T04:56:59;100767.88;;;4.01;100.00
55733;BME280;41637;52.364;9.910;2023-02-22T04:59:27;100765.30;;;4.00;100.00
55733;BME280;41637;52.364;9.910;2023-02-22T05:01:54;100764.63;;;4.02;100.00
55733;BME280;41637;52.364;9.910;2023-02-22T05:04:21;100762.77;;;4.03;100.00
55733;BME280;41637;52.364;9.910;2023-02-22T05:06:48;100763.44;;;4.08;100.00
55733;BME280;41637;52.364;9.910;2023-02-22T05:09:15;100768.44;;;4.13;100.00
55733;BME280;41637;52.364;9.910;2023-02-22T05:11:42;100765.80;;;4.17;100.00
55733;BME280;41637;52.364;9.910;2023-02-22T05:14:09;100765.93;;;4.24;100.00
55733;BME280;41637;52.364;9.910;2023-02-22T05:16:36;100765.83;;;4.33;100.00
55733;BME280;41637;52.364;9.910;2023-02-22T05:19:03;100763.27;;;4.42;100.00
55733;BME280;41637;52.364;9.910;2023-02-22T05:21:30;100758.65;;;4.52;100.00
55733;BME280;41637;52.364;9.910;2023-02-22T05:23:57;100758.36;;;4.59;100.00
55733;BME280;41637;52.364;9.910;2023-02-22T05:26:24;100757.38;;;4.66;100.00
55733;BME280;41637;52.364;9.910;2023-02-22T05:28:51;100761.20;;;4.72;100.00
55733;BME280;41637;52.364;9.910;2023-02-22T05:31:18;100761.23;;;4.78;100.00
55733;BME280;41637;52.364;9.910;2023-02-22T05:33:46;100759.16;;;4.83;100.00
55733;BME280;41637;52.364;9.910;2023-02-22T05:36:14;100753.19;;;4.89;100.00
55733;BME280;41637;52.364;9.910;2023-02-22T05:38:42;100749.09;;;4.97;100.00
55733;BME280;41637;52.364;9.910;2023-02-22T05:41:11;100746.67;;;5.00;100.00
55733;BME280;41637;52.364;9.910;2023-02-22T05:43:39;100748.50;;;5.03;100.00
55733;BME280;41637;52.364;9.910;2023-02-22T05:46:06;100745.20;;;5.04;100.00
55733;BME280;41637;52.364;9.910;2023-02-22T05:48:33;100740.80;;;5.05;100.00
55733;BME280;41637;52.364;9.910;2023-02-22T05:51:00;100744.08;;;5.05;100.00
55733;BME280;41637;52.364;9.910;2023-02-22T05:53:28;100739.60;;;5.05;100.00
55733;BME280;41637;52.364;9.910;2023-02-22T05:55:54;100741.86;;;5.05;100.00
55733;BME280;41637;52.364;9.910;2023-02-22T05:58:22;100740.17;;;5.04;100.00
55733;BME280;41637;52.364;9.910;2023-02-22T06:00:49;100738.73;;;5.04;100.00
55733;BME280;41637;52.364;9.910;2023-02-22T06:03:16;100736.39;;;5.05;100.00
55733;BME280;41637;52.364;9.910;2023-02-22T06:05:43;100733.54;;;5.06;100.00
55733;BME280;41637;52.364;9.910;2023-02-22T06:08:11;100727.76;;;5.06;100.00
55733;BME280;41637;52.364;9.910;2023-02-22T06:10:37;100730.95;;;5.05;100.00
55733;BME280;41637;52.364;9.910;2023-02-22T06:13:05;100733.48;;;5.06;100.00
55733;BME280;41637;52.364;9.910;2023-02-22T06:15:32;100735.27;;;5.09;100.00
55733;BME280;41637;52.364;9.910;2023-02-22T06:18:00;100732.53;;;5.13;100.00
55733;BME280;41637;52.364;9.910;2023-02-22T06:20:28;100733.22;;;5.17;100.00
55733;BME280;41637;52.364;9.910;2023-02-22T06:22:56;100734.19;;;5.20;100.00
55733;BME280;41637;52.364;9.910;2023-02-22T06:25:26;100731.20;;;5.25;100.00
55733;BME280;41637;52.364;9.910;2023-02-22T06:27:53;100730.73;;;5.33;100.00
55733;BME280;41637;52.364;9.910;2023-02-22T06:30:22;100730.25;;;5.38;100.00
55733;BME280;41637;52.364;9.910;2023-02-22T06:32:50;100729.96;;;5.43;100.00
55733;BME280;41637;52.364;9.910;2023-02-22T06:35:17;100726.42;;;5.47;100.00
55733;BME280;41637;52.364;9.910;2023-02-22T06:37:44;100725.38;;;5.51;100.00
55733;BME280;41637;52.364;9.910;2023-02-22T06:40:11;100721.22;;;5.54;100.00
55733;BME280;41637;52.364;9.910;2023-02-22T06:42:38;100719.34;;;5.56;100.00
55733;BME280;41637;52.364;9.910;2023-02-22T06:45:06;100724.27;;;5.55;100.00
55733;BME280;41637;52.364;9.910;2023-02-22T06:47:37;100725.92;;;5.55;100.00
55733;BME280;41637;52.364;9.910;2023-02-22T06:50:05;100725.88;;;5.55;100.00
55733;BME280;41637;52.364;9.910;2023-02-22T06:52:33;100732.55;;;5.57;100.00
55733;BME280;41637;52.364;9.910;2023-02-22T06:55:00;100734.29;;;5.59;100.00
55733;BME280;41637;52.364;9.910;2023-02-22T06:57:27;100732.48;;;5.65;100.00
55733;BME280;41637;52.364;9.910;2023-02-22T06:59:53;100729.23;;;5.72;100.00
55733;BME280;41637;52.364;9.910;2023-02-22T07:02:20;100732.02;;;5.80;100.00
55733;BME280;41637;52.364;9.910;2023-02-22T07:04:48;100733.20;;;5.86;100.00
55733;BME280;41637;52.364;9.910;2023-02-22T07:07:15;100735.95;;;5.90;100.00
55733;BME280;41637;52.364;9.910;2023-02-22T07:09:45;100733.35;;;5.98;100.00
55733;BME280;41637;52.364;9.910;2023-02-22T07:12:12;100738.25;;;6.09;100.00
55733;BME280;41637;52.364;9.910;2023-02-22T07:14:39;100735.57;;;6.21;100.00
55733;BME280;41637;52.364;9.910;2023-02-22T07:17:06;100733.30;;;6.32;100.00
55733;BME280;41637;52.364;9.910;2023-02-22T07:19:33;100730.88;;;6.43;100.00
55733;BME280;41637;52.364;9.910;2023-02-22T07:22:00;100732.60;;;6.50;100.00
55733;BME280;41637;52.364;9.910;2023-02-22T07:24:27;100735.23;;;6.54;100.00
55733;BME280;41637;52.364;9.910;2023-02-22T07:26:59;100737.27;;;6.59;100.00
55733;BME280;41637;52.364;9.910;2023-02-22T07:29:26;100736.58;;;6.66;100.00
55733;BME280;41637;52.364;9.910;2023-02-22T07:31:53;100736.88;;;6.72;100.00
55733;BME280;41637;52.364;9.910;2023-02-22T07:34:21;100733.69;;;6.79;100.00
55733;BME280;41637;52.364;9.910;2023-02-22T07:36:48;100735.89;;;6.87;100.00
55733;BME280;41637;52.364;9.910;2023-02-22T07:39:15;100732.93;;;6.96;100.00
55733;BME280;41637;52.364;9.910;2023-02-22T07:41:42;100730.59;;;7.04;100.00
55733;BME280;41637;52.364;9.910;2023-02-22T07:44:09;100733.62;;;7.12;100.00
55733;BME280;41637;52.364;9.910;2023-02-22T07:46:36;100733.27;;;7.23;100.00
55733;BME280;41637;52.364;9.910;2023-02-22T07:49:03;100732.02;;;7.32;100.00
55733;BME280;41637;52.364;9.910;2023-02-22T07:51:31;100730.08;;;7.40;100.00
55733;BME280;41637;52.364;9.910;2023-02-22T07:53:58;100724.39;;;7.47;100.00
55733;BME280;41637;52.364;9.910;2023-02-22T07:56:25;100721.46;;;7.53;100.00
55733;BME280;41637;52.364;9.910;2023-02-22T07:58:53;100728.55;;;7.61;100.00
55733;BME280;41637;52.364;9.910;2023-02-22T08:01:20;100729.49;;;7.69;100.00
55733;BME280;41637;52.364;9.910;2023-02-22T08:03:47;100730.09;;;7.79;100.00
55733;BME280;41637;52.364;9.910;2023-02-22T08:06:14;100724.30;;;7.91;100.00
55733;BME280;41637;52.364;9.910;2023-02-22T08:08:40;100725.95;;;8.01;100.00
55733;BME280;41637;52.364;9.910;2023-02-22T08:11:08;100721.05;;;8.12;100.00
55733;BME280;41637;52.364;9.910;2023-02-22T08:13:35;100719.23;;;8.24;100.00
55733;BME280;41637;52.364;9.910;2023-02-22T08:16:04;100719.04;;;8.37;100.00
55733;BME280;41637;52.364;9.910;2023-02-22T08:18:31;100719.66;;;8.50;100.00
55733;BME280;41637;52.364;9.910;2023-02-22T08:20:57;100718.81;;;8.65;100.00
55733;BME280;41637;52.364;9.910;2023-02-22T08:23:24;100716.59;;;8.76;100.00
55733;BME280;41637;52.364;9.910;2023-02-22T08:25:52;100712.57;;;8.87;100.00
55733;BME280;41637;52.364;9.910;2023-02-22T08:28:21;100716.63;;;8.99;99.97
55733;BME280;41637;52.364;9.910;2023-02-22T08:30:50;100713.13;;;9.10;99.75
55733;BME280;41637;52.364;9.910;2023-02-22T08:33:18;100710.44;;;9.19;98.92
55733;BME280;41637;52.364;9.910;2023-02-22T08:35:46;100709.41;;;9.25;98.02
55733;BME280;41637;52.364;9.910;2023-02-22T08:38:26;100712.09;;;9.33;97.69
55733;BME280;41637;52.364;9.910;2023-02-22T08:40:54;100708.48;;;9.42;97.38
55733;BME280;41637;52.364;9.910;2023-02-22T08:43:21;100709.00;;;9.52;97.35
55733;BME280;41637;52.364;9.910;2023-02-22T08:45:49;100702.98;;;9.63;97.15
55733;BME280;41637;52.364;9.910;2023-02-22T08:48:17;100700.80;;;9.76;96.93
55733;BME280;41637;52.364;9.910;2023-02-22T08:50:44;100702.84;;;9.87;96.25
55733;BME280;41637;52.364;9.910;2023-02-22T08:53:13;100702.98;;;9.92;95.45
55733;BME280;41637;52.364;9.910;2023-02-22T08:55:41;100701.73;;;9.94;94.86
55733;BME280;41637;52.364;9.910;2023-02-22T08:58:09;100701.80;;;10.00;95.01
55733;BME280;41637;52.364;9.910;2023-02-22T09:00:37;100699.88;;;10.12;95.67
55733;BME280;41637;52.364;9.910;2023-02-22T09:03:09;100698.29;;;10.30;95.74
55733;BME280;41637;52.364;9.910;2023-02-22T09:05:39;100699.64;;;10.48;94.88
55733;BME280;41637;52.364;9.910;2023-02-22T09:08:05;100695.77;;;10.63;94.37
55733;BME280;41637;52.364;9.910;2023-02-22T09:10:33;100695.59;;;10.75;93.44
55733;BME280;41637;52.364;9.910;2023-02-22T09:13:00;100689.97;;;10.87;92.58
55733;BME280;41637;52.364;9.910;2023-02-22T09:15:28;100689.16;;;10.97;91.91
55733;BME280;41637;52.364;9.910;2023-02-22T09:17:56;100687.86;;;11.02;90.82
55733;BME280;41637;52.364;9.910;2023-02-22T09:20:23;100689.35;;;11.08;90.51
55733;BME280;41637;52.364;9.910;2023-02-22T09:22:51;100688.94;;;11.10;89.96
55733;BME280;41637;52.364;9.910;2023-02-22T09:25:21;100683.64;;;11.11;89.09
55733;BME280;41637;52.364;9.910;2023-02-22T09:27:49;100678.16;;;11.09;88.75
55733;BME280;41637;52.364;9.910;2023-02-22T09:30:28;100675.55;;;11.11;89.40
55733;BME280;41637;52.364;9.910;2023-02-22T09:33:01;100675.06;;;11.11;89.00
55733;BME280;41637;52.364;9.910;2023-02-22T09:35:29;100673.61;;;11.10;88.57
55733;BME280;41637;52.364;9.910;2023-02-22T09:37:57;100673.27;;;11.11;88.94
55733;BME280;41637;52.364;9.910;2023-02-22T09:40:25;100674.46;;;11.16;88.81
55733;BME280;41637;52.364;9.910;2023-02-22T09:43:03;100673.05;;;11.25;88.92
55733;BME280;41637;52.364;9.910;2023-02-22T09:45:39;100674.37;;;11.39;89.14
55733;BME280;41637;52.364;9.910;2023-02-22T09:48:10;100671.54;;;11.50;88.25
55733;BME280;41637;52.364;9.910;2023-02-22T09:50:50;100669.00;;;11.58;87.96
55733;BME280;41637;52.364;9.910;2023-02-22T09:53:25;100669.49;;;11.71;88.45
55733;BME280;41637;52.364;9.910;2023-02-22T09:56:00;100666.17;;;11.83;87.55
55733;BME280;41637;52.364;9.910;2023-02-22T09:58:31;100670.98;;;11.95;87.27
55733;BME280;41637;52.364;9.910;2023-02-22T10:01:27;100666.66;;;12.04;86.19
55733;BME280;41637;52.364;9.910;2023-02-22T10:07:13;100671.83;;;12.20;85.03
55733;BME280;41637;52.364;9.910;2023-02-22T10:09:41;100673.77;;;12.32;84.39
55733;BME280;41637;52.364;9.910;2023-02-22T10:12:13;100667.41;;;12.41;83.83
55733;BME280;41637;52.364;9.910;2023-02-22T10:15:08;100666.49;;;12.47;83.31
55733;BME280;41637;52.364;9.910;2023-02-22T10:18:11;100664.89;;;12.54;83.07
55733;BME280;41637;52.364;9.910;2023-02-22T10:20:56;100665.62;;;12.61;82.41
55733;BME280;41637;52.364;9.910;2023-02-22T10:26:24;100653.89;;;12.71;82.24
55733;BME280;41637;52.364;9.910;2023-02-22T10:29:13;100652.76;;;12.82;81.45
55733;BME280;41637;52.364;9.910;2023-02-22T10:31:50;100649.74;;;12.83;80.24
55733;BME280;41637;52.364;9.910;2023-02-22T10:34:26;100646.98;;;12.90;80.50
55733;BME280;41637;52.364;9.910;2023-02-22T10:39:44;100637.79;;;13.02;79.51
55733;BME280;41637;52.364;9.910;2023-02-22T10:42:12;100632.51;;;13.13;79.22
55733;BME280;41637;52.364;9.910;2023-02-22T10:44:39;100629.04;;;13.25;79.07
55733;BME280;41637;52.364;9.910;2023-02-22T10:47:09;100625.41;;;13.43;78.96
55733;BME280;41637;52.364;9.910;2023-02-22T10:49:42;100625.23;;;13.60;77.60
55733;BME280;41637;52.364;9.910;2023-02-22T10:52:18;100623.75;;;13.76;76.90
55733;BME280;41637;52.364;9.910;2023-02-22T10:54:47;100620.39;;;13.86;75.83
55733;BME280;41637;52.364;9.910;2023-02-22T10:57:19;100616.30;;;13.99;75.19
55733;BME280;41637;52.364;9.910;2023-02-22T10:59:48;100614.41;;;14.11;74.32
55733;BME280;41637;52.364;9.910;2023-02-22T11:02:19;100613.63;;;14.21;73.79
55733;BME280;41637;52.364;9.910;2023-02-22T11:04:51;100604.40;;;14.36;74.26
55733;BME280;41637;52.364;9.910;2023-02-22T11:07:28;100606.50;;;14.47;72.94
55733;BME280;41637;52.364;9.910;2023-02-22T11:09:58;100602.45;;;14.49;71.82
55733;BME280;41637;52.364;9.910;2023-02-22T11:12:28;100600.52;;;14.51;71.22
55733;BME280;41637;52.364;9.910;2023-02-22T11:14:55;100600.56;;;14.63;71.50
55733;BME280;41637;52.364;9.910;2023-02-22T11:17:33;100593.39;;;14.81;71.91
55733;BME280;41637;52.364;9.910;2023-02-22T11:20:00;100590.71;;;14.95;70.48
55733;BME280;41637;52.364;9.910;2023-02-22T11:22:39;100588.13;;;14.99;69.65
55733;BME280;41637;52.364;9.910;2023-02-22T11:25:07;100585.33;;;15.02;69.12
55733;BME280;41637;52.364;9.910;2023-02-22T11:27:38;100586.92;;;15.09;69.52
55733;BME280;41637;52.364;9.910;2023-02-22T11:30:14;100587.58;;;15.13;69.01
55733;BME280;41637;52.364;9.910;2023-02-22T11:32:46;100583.12;;;15.19;69.06
55733;BME280;41637;52.364;9.910;2023-02-22T11:35:21;100581.03;;;15.24;69.19
55733;BME280;41637;52.364;9.910;2023-02-22T11:40:37;100569.98;;;15.35;68.86
55733;BME280;41637;52.364;9.910;2023-02-22T11:43:08;100568.48;;;15.43;68.93
55733;BME280;41637;52.364;9.910;2023-02-22T11:45:38;100564.21;;;15.52;68.87
55733;BME280;41637;52.364;9.910;2023-02-22T11:48:18;100558.78;;;15.65;68.34
55733;BME280;41637;52.364;9.910;2023-02-22T11:51:13;100552.88;;;15.76;67.96
55733;BME280;41637;52.364;9.910;2023-02-22T11:54:23;100547.99;;;15.91;67.29
55733;BME280;41637;52.364;9.910;2023-02-22T11:56:51;100544.04;;;16.08;66.79
55733;BME280;41637;52.364;9.910;2023-02-22T11:59:58;100547.09;;;16.21;66.54
55733;BME280;41637;52.364;9.910;2023-02-22T12:02:47;100537.25;;;16.37;65.74
55733;BME280;41637;52.364;9.910;2023-02-22T12:08:31;100536.70;;;16.61;65.23
55733;BME280;41637;52.364;9.910;2023-02-22T12:13:54;100531.69;;;16.87;64.34
55733;BME280;41637;52.364;9.910;2023-02-22T12:22:07;100527.04;;;17.35;62.56
55733;BME280;41637;52.364;9.910;2023-02-22T12:24:44;100523.67;;;17.40;62.00
55733;BME280;41637;52.364;9.910;2023-02-22T12:27:34;100522.95;;;17.38;61.16
55733;BME280;41637;52.364;9.910;2023-02-22T12:30:06;100519.25;;;17.44;60.91
55733;BME280;41637;52.364;9.910;2023-02-22T12:32:47;100518.41;;;17.52;60.88
55733;BME280;41637;52.364;9.910;2023-02-22T12:35:34;100513.33;;;17.73;61.48
55733;BME280;41637;52.364;9.910;2023-02-22T12:43:32;100512.98;;;17.97;59.65
55733;BME280;41637;52.364;9.910;2023-02-22T12:46:18;100511.11;;;18.11;59.29
55733;BME280;41637;52.364;9.910;2023-02-22T12:57:04;100508.03;;;18.61;56.94
55733;BME280;41637;52.364;9.910;2023-02-22T12:59:45;100503.71;;;18.80;56.29
55733;BME280;41637;52.364;9.910;2023-02-22T13:02:33;100504.80;;;19.02;56.51
55733;BME280;41637;52.364;9.910;2023-02-22T13:05:02;100498.67;;;19.09;56.07
55733;BME280;41637;52.364;9.910;2023-02-22T13:18:16;100487.88;;;18.75;56.03
55733;BME280;41637;52.364;9.910;2023-02-22T13:20:52;100482.70;;;18.53;57.03
55733;BME280;41637;52.364;9.910;2023-02-22T13:23:35;100478.03;;;18.38;57.91
55733;BME280;41637;52.364;9.910;2023-02-22T13:27:01;100474.80;;;18.26;58.41
55733;BME280;41637;52.364;9.910;2023-02-22T13:29:09;100473.79;;;18.11;58.71
55733;BME280;41637;52.364;9.910;2023-02-22T13:31:50;100467.14;;;18.05;59.41
55733;BME280;41637;52.364;9.910;2023-02-22T13:37:22;100459.76;;;17.72;59.43
55733;BME280;41637;52.364;9.910;2023-02-22T13:40:11;100455.81;;;17.67;60.13
55733;BME280;41637;52.364;9.910;2023-02-22T13:42:54;100453.58;;;17.63;60.18
55733;BME280;41637;52.364;9.910;2023-02-22T13:48:26;100448.05;;;17.43;60.95
55733;BME280;41637;52.364;9.910;2023-02-22T13:51:17;100449.23;;;17.45;61.34
55733;BME280;41637;52.364;9.910;2023-02-22T13:54:03;100444.69;;;17.51;61.64
55733;BME280;41637;52.364;9.910;2023-02-22T13:56:33;100442.49;;;17.64;61.81
55733;BME280;41637;52.364;9.910;2023-02-22T13:59:02;100439.24;;;17.73;61.19
55733;BME280;41637;52.364;9.910;2023-02-22T14:01:45;100436.89;;;17.78;61.25
55733;BME280;41637;52.364;9.910;2023-02-22T14:04:21;100435.77;;;17.88;61.57
55733;BME280;41637;52.364;9.910;2023-02-22T14:07:44;100437.64;;;18.06;60.74
55733;BME280;41637;52.364;9.910;2023-02-22T14:09:55;100432.73;;;18.25;59.81
55733;BME280;41637;52.364;9.910;2023-02-22T14:17:59;100428.85;;;18.88;57.73
55733;BME280;41637;52.364;9.910;2023-02-22T14:20:35;100424.23;;;19.05;56.49
55733;BME280;41637;52.364;9.910;2023-02-22T14:25:51;100421.68;;;19.08;54.90
55733;BME280;41637;52.364;9.910;2023-02-22T14:28:34;100422.40;;;18.95;54.85
55733;BME280;41637;52.364;9.910;2023-02-22T14:31:12;100421.10;;;18.80;55.46
55733;BME280;41637;52.364;9.910;2023-02-22T14:34:08;100418.36;;;18.71;55.63
55733;BME280;41637;52.364;9.910;2023-02-22T14:39:36;100419.02;;;18.79;56.01
55733;BME280;41637;52.364;9.910;2023-02-22T14:48:19;100408.70;;;18.91;56.45